sensor_id;sensor_type;location;lat;lon;timestamp;pressure;altitude;pressure_sealevel;temperature;humidity
64853;BME280;56050;55.558;-4.644;2023-04-20T00:01:51;103161.69;;;9.51;57.86
64853;BME280;56050;55.558;-4.644;2023-04-20T00:04:16;103162.34;;;9.48;57.99
64853;BME280;56050;55.558;-4.644;2023-04-20T00:06:43;103162.19;;;9.44;58.00
64853;BME280;56050;55.558;-4.644;2023-04-20T00:09:12;103160.13;;;9.41;58.12
64853;BME280;56050;55.558;-4.644;2023-04-20T00:11:38;103163.13;;;9.39;58.05
64853;BME280;56050;55.558;-4.644;2023-04-20T00:14:04;103154.59;;;9.37;58.16
64853;BME280;56050;55.558;-4.644;2023-04-20T00:16:30;103162.50;;;9.34;58.27
64853;BME280;56050;55.558;-4.644;2023-04-20T00:18:55;103163.94;;;9.31;58.40
64853;BME280;56050;55.558;-4.644;2023-04-20T00:21:21;103163.47;;;9.29;58.47
64853;BME280;56050;55.558;-4.644;2023-04-20T00:23:48;103162.22;;;9.27;58.38
64853;BME280;56050;55.558;-4.644;2023-04-20T00:26:14;103158.56;;;9.23;58.54
64853;BME280;56050;55.558;-4.644;2023-04-20T00:28:41;103154.59;;;9.20;58.46
64853;BME280;56050;55.558;-4.644;2023-04-20T00:31:06;103151.78;;;9.17;58.73
64853;BME280;56050;55.558;-4.644;2023-04-20T00:33:32;103158.56;;;9.14;58.86
64853;BME280;56050;55.558;-4.644;2023-04-20T00:35:57;103153.50;;;9.13;58.97
64853;BME280;56050;55.558;-4.644;2023-04-20T00:38:22;103147.66;;;9.11;58.86
64853;BME280;56050;55.558;-4.644;2023-04-20T00:40:48;103154.13;;;9.10;58.95
64853;BME280;56050;55.558;-4.644;2023-04-20T00:43:18;103152.88;;;9.07;59.21
64853;BME280;56050;55.558;-4.644;2023-04-20T00:45:44;103144.34;;;9.05;59.29
64853;BME280;56050;55.558;-4.644;2023-04-20T00:48:10;103152.69;;;9.04;59.37
64853;BME280;56050;55.558;-4.644;2023-04-20T00:50:36;103146.84;;;9.02;59.49
64853;BME280;56050;55.558;-4.644;2023-04-20T00:53:02;103144.50;;;9.00;59.75
64853;BME280;56050;55.558;-4.644;2023-04-20T00:55:29;103139.41;;;8.99;59.71
64853;BME280;56050;55.558;-4.644;2023-04-20T00:57:55;103135.81;;;8.95;59.81
64853;BME280;56050;55.558;-4.644;2023-04-20T01:00:21;103141.19;;;8.95;59.90
64853;BME280;56050;55.558;-4.644;2023-04-20T01:02:47;103131.06;;;8.92;60.00
64853;BME280;56050;55.558;-4.644;2023-04-20T01:05:12;103137.53;;;8.91;60.17
64853;BME280;56050;55.558;-4.644;2023-04-20T01:07:38;103125.19;;;8.90;60.00
64853;BME280;56050;55.558;-4.644;2023-04-20T01:10:07;103128.19;;;8.88;60.29
64853;BME280;56050;55.558;-4.644;2023-04-20T01:12:33;103117.44;;;8.88;60.35
64853;BME280;56050;55.558;-4.644;2023-04-20T01:14:58;103114.28;;;8.86;60.44
64853;BME280;56050;55.558;-4.644;2023-04-20T01:17:25;103124.25;;;8.85;60.65
64853;BME280;56050;55.558;-4.644;2023-04-20T01:19:51;103126.47;;;8.83;60.63
64853;BME280;56050;55.558;-4.644;2023-04-20T01:22:20;103122.47;;;8.81;60.73
64853;BME280;56050;55.558;-4.644;2023-04-20T01:24:46;103118.22;;;8.80;60.82
64853;BME280;56050;55.558;-4.644;2023-04-20T01:27:14;103112.69;;;8.76;61.10
64853;BME280;56050;55.558;-4.644;2023-04-20T01:29:41;103115.69;;;8.75;61.08
64853;BME280;56050;55.558;-4.644;2023-04-20T01:32:07;103116.31;;;8.72;61.43
64853;BME280;56050;55.558;-4.644;2023-04-20T01:34:33;103118.03;;;8.68;61.54
64853;BME280;56050;55.558;-4.644;2023-04-20T01:36:58;103112.19;;;8.66;61.57
64853;BME280;56050;55.558;-4.644;2023-04-20T01:39:24;103110.94;;;8.63;61.73
64853;BME280;56050;55.558;-4.644;2023-04-20T01:41:49;103106.66;;;8.62;61.65
64853;BME280;56050;55.558;-4.644;2023-04-20T01:44:15;103107.00;;;8.61;61.63
64853;BME280;56050;55.558;-4.644;2023-04-20T01:46:41;103107.63;;;8.58;61.93
64853;BME280;56050;55.558;-4.644;2023-04-20T01:49:07;103112.81;;;8.54;62.02
64853;BME280;56050;55.558;-4.644;2023-04-20T01:51:35;103116.91;;;8.52;62.22
64853;BME280;56050;55.558;-4.644;2023-04-20T01:54:02;103105.69;;;8.50;62.11
64853;BME280;56050;55.558;-4.644;2023-04-20T01:56:27;103112.16;;;8.49;62.30
64853;BME280;56050;55.558;-4.644;2023-04-20T01:58:53;103099.88;;;8.48;62.28
64853;BME280;56050;55.558;-4.644;2023-04-20T02:01:19;103106.31;;;8.47;62.45
64853;BME280;56050;55.558;-4.644;2023-04-20T02:03:44;103103.16;;;8.45;62.63
64853;BME280;56050;55.558;-4.644;2023-04-20T02:06:10;103099.69;;;8.44;62.55
64853;BME280;56050;55.558;-4.644;2023-04-20T02:08:35;103105.34;;;8.43;62.62
64853;BME280;56050;55.558;-4.644;2023-04-20T02:11:01;103096.22;;;8.44;62.72
64853;BME280;56050;55.558;-4.644;2023-04-20T02:13:26;103105.34;;;8.43;62.58
64853;BME280;56050;55.558;-4.644;2023-04-20T02:15:51;103110.72;;;8.43;62.70
64853;BME280;56050;55.558;-4.644;2023-04-20T02:18:17;103106.78;;;8.40;62.70
64853;BME280;56050;55.558;-4.644;2023-04-20T02:20:43;103102.19;;;8.41;62.96
64853;BME280;56050;55.558;-4.644;2023-04-20T02:23:08;103102.53;;;8.39;62.63
64853;BME280;56050;55.558;-4.644;2023-04-20T02:25:33;103109.78;;;8.39;62.90
64853;BME280;56050;55.558;-4.644;2023-04-20T02:27:59;103099.03;;;8.39;62.84
64853;BME280;56050;55.558;-4.644;2023-04-20T02:30:24;103104.41;;;8.39;62.98
64853;BME280;56050;55.558;-4.644;2023-04-20T02:32:50;103104.72;;;8.37;62.86
64853;BME280;56050;55.558;-4.644;2023-04-20T02:35:15;103100.47;;;8.36;62.88
64853;BME280;56050;55.558;-4.644;2023-04-20T02:37:42;103096.50;;;8.34;63.06
64853;BME280;56050;55.558;-4.644;2023-04-20T02:40:08;103095.25;;;8.31;63.23
64853;BME280;56050;55.558;-4.644;2023-04-20T02:42:34;103097.94;;;8.31;63.05
64853;BME280;56050;55.558;-4.644;2023-04-20T02:44:59;103097.59;;;8.33;63.13
64853;BME280;56050;55.558;-4.644;2023-04-20T02:47:24;103093.81;;;8.34;63.36
64853;BME280;56050;55.558;-4.644;2023-04-20T02:49:50;103092.22;;;8.33;63.38
64853;BME280;56050;55.558;-4.644;2023-04-20T02:52:15;103087.94;;;8.32;63.45
64853;BME280;56050;55.558;-4.644;2023-04-20T02:54:41;103082.91;;;8.30;63.73
64853;BME280;56050;55.558;-4.644;2023-04-20T02:57:06;103091.91;;;8.34;63.69
64853;BME280;56050;55.558;-4.644;2023-04-20T02:59:31;103078.00;;;8.32;63.75
64853;BME280;56050;55.558;-4.644;2023-04-20T03:01:57;103082.59;;;8.32;63.76
64853;BME280;56050;55.558;-4.644;2023-04-20T03:04:22;103077.72;;;8.34;64.01
64853;BME280;56050;55.558;-4.644;2023-04-20T03:06:48;103069.66;;;8.34;64.22
64853;BME280;56050;55.558;-4.644;2023-04-20T03:09:14;103074.53;;;8.32;64.20
64853;BME280;56050;55.558;-4.644;2023-04-20T03:11:40;103074.84;;;8.30;64.27
64853;BME280;56050;55.558;-4.644;2023-04-20T03:14:05;103064.28;;;8.34;64.26
64853;BME280;56050;55.558;-4.644;2023-04-20T03:16:31;103073.44;;;8.33;64.17
64853;BME280;56050;55.558;-4.644;2023-04-20T03:18:56;103063.03;;;8.31;64.39
64853;BME280;56050;55.558;-4.644;2023-04-20T03:21:22;103067.59;;;8.31;64.42
64853;BME280;56050;55.558;-4.644;2023-04-20T03:23:47;103062.22;;;8.31;64.44
64853;BME280;56050;55.558;-4.644;2023-04-20T03:26:13;103063.31;;;8.30;64.54
64853;BME280;56050;55.558;-4.644;2023-04-20T03:28:40;103059.38;;;8.27;64.58
64853;BME280;56050;55.558;-4.644;2023-04-20T03:31:06;103062.34;;;8.25;64.61
64853;BME280;56050;55.558;-4.644;2023-04-20T03:33:31;103063.72;;;8.23;64.75
64853;BME280;56050;55.558;-4.644;2023-04-20T03:35:57;103055.38;;;8.24;64.80
64853;BME280;56050;55.558;-4.644;2023-04-20T03:38:22;103068.81;;;8.24;64.82
64853;BME280;56050;55.558;-4.644;2023-04-20T03:40:47;103071.16;;;8.26;64.81
64853;BME280;56050;55.558;-4.644;2023-04-20T03:43:13;103073.09;;;8.25;64.79
64853;BME280;56050;55.558;-4.644;2023-04-20T03:45:38;103073.09;;;8.25;64.76
64853;BME280;56050;55.558;-4.644;2023-04-20T03:48:04;103075.78;;;8.25;64.77
64853;BME280;56050;55.558;-4.644;2023-04-20T03:50:29;103074.38;;;8.28;64.67
64853;BME280;56050;55.558;-4.644;2023-04-20T03:52:55;103081.31;;;8.29;64.61
64853;BME280;56050;55.558;-4.644;2023-04-20T03:55:20;103087.47;;;8.30;64.63
64853;BME280;56050;55.558;-4.644;2023-04-20T03:57:46;103081.03;;;8.31;64.54
64853;BME280;56050;55.558;-4.644;2023-04-20T04:00:12;103083.38;;;8.32;64.41
64853;BME280;56050;55.558;-4.644;2023-04-20T04:02:37;103083.56;;;8.36;64.35
64853;BME280;56050;55.558;-4.644;2023-04-20T04:05:02;103075.16;;;8.37;64.14
64853;BME280;56050;55.558;-4.644;2023-04-20T04:07:28;103072.19;;;8.39;64.16
64853;BME280;56050;55.558;-4.644;2023-04-20T04:09:53;103077.56;;;8.39;64.23
64853;BME280;56050;55.558;-4.644;2023-04-20T04:12:19;103075.97;;;8.38;64.11
64853;BME280;56050;55.558;-4.644;2023-04-20T04:14:44;103071.72;;;8.37;63.99
64853;BME280;56050;55.558;-4.644;2023-04-20T04:17:10;103071.38;;;8.38;63.98
64853;BME280;56050;55.558;-4.644;2023-04-20T04:19:35;103060.97;;;8.37;63.88
64853;BME280;56050;55.558;-4.644;2023-04-20T04:22:00;103068.22;;;8.36;64.14
64853;BME280;56050;55.558;-4.644;2023-04-20T04:24:26;103069.66;;;8.34;64.06
64853;BME280;56050;55.558;-4.644;2023-04-20T04:26:52;103064.91;;;8.31;64.05
64853;BME280;56050;55.558;-4.644;2023-04-20T04:29:22;103059.03;;;8.28;64.12
64853;BME280;56050;55.558;-4.644;2023-04-20T04:31:50;103062.03;;;8.27;64.10
64853;BME280;56050;55.558;-4.644;2023-04-20T04:34:15;103056.19;;;8.25;64.13
64853;BME280;56050;55.558;-4.644;2023-04-20T04:36:42;103061.84;;;8.23;63.98
64853;BME280;56050;55.558;-4.644;2023-04-20T04:39:08;103060.56;;;8.21;64.20
64853;BME280;56050;55.558;-4.644;2023-04-20T04:41:33;103063.59;;;8.19;64.33
64853;BME280;56050;55.558;-4.644;2023-04-20T04:43:59;103053.47;;;8.16;64.32
64853;BME280;56050;55.558;-4.644;2023-04-20T04:46:28;103055.19;;;8.12;64.45
64853;BME280;56050;55.558;-4.644;2023-04-20T04:48:54;103058.00;;;8.07;64.50
64853;BME280;56050;55.558;-4.644;2023-04-20T04:51:20;103052.47;;;8.04;64.59
64853;BME280;56050;55.558;-4.644;2023-04-20T04:53:46;103053.13;;;8.01;64.87
64853;BME280;56050;55.558;-4.644;2023-04-20T04:56:13;103051.69;;;7.95;64.84
64853;BME280;56050;55.558;-4.644;2023-04-20T04:58:39;103053.09;;;7.92;65.07
64853;BME280;56050;55.558;-4.644;2023-04-20T05:01:04;103052.13;;;7.88;65.25
64853;BME280;56050;55.558;-4.644;2023-04-20T05:03:30;103048.16;;;7.86;65.42
64853;BME280;56050;55.558;-4.644;2023-04-20T05:05:55;103049.88;;;7.82;65.55
64853;BME280;56050;55.558;-4.644;2023-04-20T05:08:21;103043.84;;;7.76;65.76
64853;BME280;56050;55.558;-4.644;2023-04-20T05:10:48;103049.84;;;7.73;65.82
64853;BME280;56050;55.558;-4.644;2023-04-20T05:13:14;103035.47;;;7.69;65.98
64853;BME280;56050;55.558;-4.644;2023-04-20T05:15:39;103036.09;;;7.66;65.91
64853;BME280;56050;55.558;-4.644;2023-04-20T05:18:05;103038.78;;;7.66;66.09
64853;BME280;56050;55.558;-4.644;2023-04-20T05:20:30;103040.97;;;7.64;66.01
64853;BME280;56050;55.558;-4.644;2023-04-20T05:22:55;103034.03;;;7.63;66.31
64853;BME280;56050;55.558;-4.644;2023-04-20T05:25:21;103035.44;;;7.60;66.21
64853;BME280;56050;55.558;-4.644;2023-04-20T05:27:46;103031.66;;;7.61;66.20
64853;BME280;56050;55.558;-4.644;2023-04-20T05:30:12;103034.63;;;7.60;66.22
64853;BME280;56050;55.558;-4.644;2023-04-20T05:32:37;103028.19;;;7.61;66.37
64853;BME280;56050;55.558;-4.644;2023-04-20T05:35:02;103040.00;;;7.60;66.24
64853;BME280;56050;55.558;-4.644;2023-04-20T05:37:28;103040.78;;;7.60;66.32
64853;BME280;56050;55.558;-4.644;2023-04-20T05:39:53;103043.00;;;7.58;66.31
64853;BME280;56050;55.558;-4.644;2023-04-20T05:42:18;103049.16;;;7.59;66.48
64853;BME280;56050;55.558;-4.644;2023-04-20T05:44:44;103039.53;;;7.58;66.56
64853;BME280;56050;55.558;-4.644;2023-04-20T05:47:09;103045.38;;;7.60;66.52
64853;BME280;56050;55.558;-4.644;2023-04-20T05:49:35;103041.88;;;7.59;66.68
64853;BME280;56050;55.558;-4.644;2023-04-20T05:52:00;103042.38;;;7.61;66.55
64853;BME280;56050;55.558;-4.644;2023-04-20T05:54:26;103045.88;;;7.62;66.58
64853;BME280;56050;55.558;-4.644;2023-04-20T05:56:55;103040.97;;;7.64;66.59
64853;BME280;56050;55.558;-4.644;2023-04-20T05:59:22;103043.34;;;7.65;66.72
64853;BME280;56050;55.558;-4.644;2023-04-20T06:01:48;103049.97;;;7.68;66.56
64853;BME280;56050;55.558;-4.644;2023-04-20T06:04:13;103048.88;;;7.69;66.76
64853;BME280;56050;55.558;-4.644;2023-04-20T06:06:39;103051.75;;;7.73;66.82
64853;BME280;56050;55.558;-4.644;2023-04-20T06:09:04;103048.13;;;7.77;66.67
64853;BME280;56050;55.558;-4.644;2023-04-20T06:11:30;103056.53;;;7.84;66.63
64853;BME280;56050;55.558;-4.644;2023-04-20T06:13:56;103056.06;;;7.91;66.49
64853;BME280;56050;55.558;-4.644;2023-04-20T06:16:21;103062.56;;;7.98;66.63
64853;BME280;56050;55.558;-4.644;2023-04-20T06:18:47;103065.88;;;8.04;66.37
64853;BME280;56050;55.558;-4.644;2023-04-20T06:21:12;103066.91;;;8.16;66.51
64853;BME280;56050;55.558;-4.644;2023-04-20T06:23:37;103063.63;;;8.28;66.40
64853;BME280;56050;55.558;-4.644;2023-04-20T06:26:03;103072.50;;;8.46;66.32
64853;BME280;56050;55.558;-4.644;2023-04-20T06:28:32;103080.25;;;8.64;66.10
64853;BME280;56050;55.558;-4.644;2023-04-20T06:30:57;103079.97;;;8.83;65.92
64853;BME280;56050;55.558;-4.644;2023-04-20T06:33:23;103079.66;;;9.02;65.79
64853;BME280;56050;55.558;-4.644;2023-04-20T06:35:48;103081.69;;;9.22;65.63
64853;BME280;56050;55.558;-4.644;2023-04-20T06:38:15;103086.72;;;9.40;65.14
64853;BME280;56050;55.558;-4.644;2023-04-20T06:40:41;103082.38;;;9.57;64.96
64853;BME280;56050;55.558;-4.644;2023-04-20T06:43:06;103087.38;;;9.75;64.65
64853;BME280;56050;55.558;-4.644;2023-04-20T06:45:31;103086.53;;;9.92;64.32
64853;BME280;56050;55.558;-4.644;2023-04-20T06:47:57;103082.97;;;10.09;64.22
64853;BME280;56050;55.558;-4.644;2023-04-20T06:50:22;103083.25;;;10.24;63.83
64853;BME280;56050;55.558;-4.644;2023-04-20T06:52:48;103085.81;;;10.41;63.67
64853;BME280;56050;55.558;-4.644;2023-04-20T06:55:13;103076.38;;;10.56;63.31
64853;BME280;56050;55.558;-4.644;2023-04-20T06:57:39;103075.00;;;10.71;62.94
64853;BME280;56050;55.558;-4.644;2023-04-20T07:00:07;103078.53;;;10.83;62.62
64853;BME280;56050;55.558;-4.644;2023-04-20T07:05:12;103070.88;;;11.06;61.81
64853;BME280;56050;55.558;-4.644;2023-04-20T07:07:37;103078.56;;;11.16;61.54
64853;BME280;56050;55.558;-4.644;2023-04-20T07:10:03;103073.28;;;11.19;60.97
64853;BME280;56050;55.558;-4.644;2023-04-20T07:12:29;103072.28;;;11.24;60.60
64853;BME280;56050;55.558;-4.644;2023-04-20T07:14:54;103075.91;;;11.28;60.33
64853;BME280;56050;55.558;-4.644;2023-04-20T07:17:20;103081.09;;;11.33;60.01
64853;BME280;56050;55.558;-4.644;2023-04-20T07:19:45;103079.09;;;11.42;59.71
64853;BME280;56050;55.558;-4.644;2023-04-20T07:22:11;103075.38;;;11.47;59.35
64853;BME280;56050;55.558;-4.644;2023-04-20T07:24:36;103074.41;;;11.51;59.16
64853;BME280;56050;55.558;-4.644;2023-04-20T07:27:02;103068.44;;;11.58;58.87
64853;BME280;56050;55.558;-4.644;2023-04-20T07:29:27;103078.50;;;11.69;58.83
64853;BME280;56050;55.558;-4.644;2023-04-20T07:31:52;103077.72;;;11.81;58.59
64853;BME280;56050;55.558;-4.644;2023-04-20T07:34:18;103068.72;;;11.89;58.22
64853;BME280;56050;55.558;-4.644;2023-04-20T07:36:43;103072.44;;;11.97;58.00
64853;BME280;56050;55.558;-4.644;2023-04-20T07:39:09;103076.13;;;12.04;57.73
64853;BME280;56050;55.558;-4.644;2023-04-20T07:41:35;103066.38;;;12.12;57.48
64853;BME280;56050;55.558;-4.644;2023-04-20T07:44:00;103073.09;;;12.18;57.32
64853;BME280;56050;55.558;-4.644;2023-04-20T07:46:26;103066.44;;;12.27;57.18
64853;BME280;56050;55.558;-4.644;2023-04-20T07:48:52;103068.34;;;12.39;56.87
64853;BME280;56050;55.558;-4.644;2023-04-20T07:51:18;103065.16;;;12.49;56.77
64853;BME280;56050;55.558;-4.644;2023-04-20T07:53:43;103068.97;;;12.60;56.70
64853;BME280;56050;55.558;-4.644;2023-04-20T07:56:08;103060.38;;;12.70;56.46
64853;BME280;56050;55.558;-4.644;2023-04-20T07:58:34;103066.00;;;12.77;56.28
64853;BME280;56050;55.558;-4.644;2023-04-20T08:01:02;103060.44;;;12.86;56.13
64853;BME280;56050;55.558;-4.644;2023-04-20T08:03:28;103063.06;;;12.98;56.11
64853;BME280;56050;55.558;-4.644;2023-04-20T08:05:53;103064.41;;;13.04;55.63
64853;BME280;56050;55.558;-4.644;2023-04-20T08:08:19;103062.28;;;13.10;55.46
64853;BME280;56050;55.558;-4.644;2023-04-20T08:10:44;103065.25;;;13.20;55.55
64853;BME280;56050;55.558;-4.644;2023-04-20T08:13:10;103066.31;;;13.31;55.37
64853;BME280;56050;55.558;-4.644;2023-04-20T08:15:35;103063.38;;;13.36;55.05
64853;BME280;56050;55.558;-4.644;2023-04-20T08:18:01;103063.03;;;13.38;54.76
64853;BME280;56050;55.558;-4.644;2023-04-20T08:20:26;103070.44;;;13.41;54.33
64853;BME280;56050;55.558;-4.644;2023-04-20T08:22:52;103062.75;;;13.43;53.79
64853;BME280;56050;55.558;-4.644;2023-04-20T08:25:17;103061.53;;;13.40;53.52
64853;BME280;56050;55.558;-4.644;2023-04-20T08:27:43;103060.41;;;13.41;53.40
64853;BME280;56050;55.558;-4.644;2023-04-20T08:30:08;103047.41;;;13.47;53.07
64853;BME280;56050;55.558;-4.644;2023-04-20T08:32:34;103062.50;;;13.48;53.25
64853;BME280;56050;55.558;-4.644;2023-04-20T08:34:59;103050.97;;;13.51;52.95
64853;BME280;56050;55.558;-4.644;2023-04-20T08:37:25;103051.84;;;13.55;52.98
64853;BME280;56050;55.558;-4.644;2023-04-20T08:39:51;103048.88;;;13.60;52.65
64853;BME280;56050;55.558;-4.644;2023-04-20T08:42:16;103060.34;;;13.69;52.48
64853;BME280;56050;55.558;-4.644;2023-04-20T08:44:42;103054.91;;;13.69;52.08
64853;BME280;56050;55.558;-4.644;2023-04-20T08:47:10;103051.75;;;13.67;51.75
64853;BME280;56050;55.558;-4.644;2023-04-20T08:49:37;103046.28;;;13.64;51.22
64853;BME280;56050;55.558;-4.644;2023-04-20T08:52:04;103060.59;;;13.64;51.15
64853;BME280;56050;55.558;-4.644;2023-04-20T08:54:30;103046.69;;;13.66;51.20
64853;BME280;56050;55.558;-4.644;2023-04-20T08:56:56;103044.00;;;13.66;50.89
64853;BME280;56050;55.558;-4.644;2023-04-20T08:59:22;103045.91;;;13.65;50.77
64853;BME280;56050;55.558;-4.644;2023-04-20T09:01:48;103036.28;;;13.68;50.73
64853;BME280;56050;55.558;-4.644;2023-04-20T09:04:24;103037.88;;;13.69;50.39
64853;BME280;56050;55.558;-4.644;2023-04-20T09:06:52;103035.59;;;13.71;50.10
64853;BME280;56050;55.558;-4.644;2023-04-20T09:09:18;103037.28;;;13.75;50.29
64853;BME280;56050;55.558;-4.644;2023-04-20T09:11:44;103035.06;;;13.81;50.10
64853;BME280;56050;55.558;-4.644;2023-04-20T09:14:14;103030.44;;;13.81;49.69
64853;BME280;56050;55.558;-4.644;2023-04-20T09:16:54;103025.78;;;13.82;49.42
64853;BME280;56050;55.558;-4.644;2023-04-20T09:19:29;103011.13;;;13.83;49.16
64853;BME280;56050;55.558;-4.644;2023-04-20T09:21:58;103016.59;;;13.86;49.18
64853;BME280;56050;55.558;-4.644;2023-04-20T09:24:33;103012.75;;;13.87;49.02
64853;BME280;56050;55.558;-4.644;2023-04-20T09:27:01;103016.00;;;13.93;49.11
64853;BME280;56050;55.558;-4.644;2023-04-20T09:29:27;103007.53;;;13.94;48.59
64853;BME280;56050;55.558;-4.644;2023-04-20T09:31:53;103002.09;;;13.94;48.35
64853;BME280;56050;55.558;-4.644;2023-04-20T09:34:19;102999.03;;;13.96;48.02
64853;BME280;56050;55.558;-4.644;2023-04-20T09:36:47;102990.91;;;13.96;47.72
64853;BME280;56050;55.558;-4.644;2023-04-20T09:39:20;102981.28;;;13.98;47.74
64853;BME280;56050;55.558;-4.644;2023-04-20T09:41:46;102977.94;;;14.05;47.46
64853;BME280;56050;55.558;-4.644;2023-04-20T09:44:14;102979.59;;;14.09;47.24
64853;BME280;56050;55.558;-4.644;2023-04-20T09:46:40;102992.34;;;14.09;46.62
64853;BME280;56050;55.558;-4.644;2023-04-20T09:49:10;102979.16;;;14.07;46.36
64853;BME280;56050;55.558;-4.644;2023-04-20T09:51:38;102990.00;;;14.07;46.04
64853;BME280;56050;55.558;-4.644;2023-04-20T09:54:05;102979.25;;;14.11;45.88
64853;BME280;56050;55.558;-4.644;2023-04-20T09:56:32;102983.59;;;14.16;45.64
64853;BME280;56050;55.558;-4.644;2023-04-20T09:58:59;102971.75;;;14.24;45.64
64853;BME280;56050;55.558;-4.644;2023-04-20T10:01:26;102961.78;;;14.28;45.25
64853;BME280;56050;55.558;-4.644;2023-04-20T10:03:53;102961.94;;;14.35;44.98
64853;BME280;56050;55.558;-4.644;2023-04-20T10:06:23;102945.38;;;14.40;44.65
64853;BME280;56050;55.558;-4.644;2023-04-20T10:08:50;102955.59;;;14.46;44.84
64853;BME280;56050;55.558;-4.644;2023-04-20T10:11:37;102937.50;;;14.54;44.00
64853;BME280;56050;55.558;-4.644;2023-04-20T10:14:20;102951.56;;;14.59;43.99
64853;BME280;56050;55.558;-4.644;2023-04-20T10:16:58;102939.72;;;14.67;43.72
64853;BME280;56050;55.558;-4.644;2023-04-20T10:19:43;102939.91;;;14.78;43.79
64853;BME280;56050;55.558;-4.644;2023-04-20T10:22:11;102944.03;;;14.91;43.87
64853;BME280;56050;55.558;-4.644;2023-04-20T10:24:37;102933.69;;;15.00;43.94
64853;BME280;56050;55.558;-4.644;2023-04-20T10:27:25;102933.44;;;15.09;43.29
64853;BME280;56050;55.558;-4.644;2023-04-20T10:29:49;102935.44;;;15.12;42.31
64853;BME280;56050;55.558;-4.644;2023-04-20T10:32:25;102920.75;;;15.13;42.12
64853;BME280;56050;55.558;-4.644;2023-04-20T10:35:05;102925.47;;;15.19;41.64
64853;BME280;56050;55.558;-4.644;2023-04-20T10:37:32;102917.34;;;15.19;41.54
64853;BME280;56050;55.558;-4.644;2023-04-20T10:39:58;102920.03;;;15.19;41.21
64853;BME280;56050;55.558;-4.644;2023-04-20T10:42:24;102917.41;;;15.23;40.89
64853;BME280;56050;55.558;-4.644;2023-04-20T10:44:51;102911.31;;;15.29;40.90
64853;BME280;56050;55.558;-4.644;2023-04-20T10:47:29;102904.75;;;15.34;41.39
64853;BME280;56050;55.558;-4.644;2023-04-20T10:50:13;102891.66;;;15.40;40.89
64853;BME280;56050;55.558;-4.644;2023-04-20T10:52:41;102897.50;;;15.42;40.34
64853;BME280;56050;55.558;-4.644;2023-04-20T10:55:24;102892.84;;;15.42;40.19
64853;BME280;56050;55.558;-4.644;2023-04-20T10:57:50;102897.16;;;15.43;39.81
64853;BME280;56050;55.558;-4.644;2023-04-20T11:00:17;102887.47;;;15.46;39.68
64853;BME280;56050;55.558;-4.644;2023-04-20T11:02:53;102893.34;;;15.48;39.57
64853;BME280;56050;55.558;-4.644;2023-04-20T11:05:22;102893.44;;;15.55;39.55
64853;BME280;56050;55.558;-4.644;2023-04-20T11:07:58;102881.84;;;15.58;38.70
64853;BME280;56050;55.558;-4.644;2023-04-20T11:10:39;102867.53;;;15.61;38.64
64853;BME280;56050;55.558;-4.644;2023-04-20T11:13:06;102876.56;;;15.68;38.90
64853;BME280;56050;55.558;-4.644;2023-04-20T11:15:34;102875.50;;;15.76;38.96
64853;BME280;56050;55.558;-4.644;2023-04-20T11:18:10;102872.88;;;15.83;39.06
64853;BME280;56050;55.558;-4.644;2023-04-20T11:20:36;102869.00;;;15.84;38.18
64853;BME280;56050;55.558;-4.644;2023-04-20T11:23:02;102856.63;;;15.87;38.23
64853;BME280;56050;55.558;-4.644;2023-04-20T11:25:30;102856.28;;;15.92;38.57
64853;BME280;56050;55.558;-4.644;2023-04-20T11:28:06;102871.53;;;16.00;38.76
64853;BME280;56050;55.558;-4.644;2023-04-20T11:30:41;102860.28;;;16.02;38.55
64853;BME280;56050;55.558;-4.644;2023-04-20T11:33:07;102852.56;;;16.07;38.36
64853;BME280;56050;55.558;-4.644;2023-04-20T11:35:37;102843.66;;;16.10;38.69
64853;BME280;56050;55.558;-4.644;2023-04-20T11:38:02;102842.19;;;16.16;38.75
64853;BME280;56050;55.558;-4.644;2023-04-20T11:40:28;102852.31;;;16.19;38.48
64853;BME280;56050;55.558;-4.644;2023-04-20T11:42:53;102837.56;;;16.20;38.39
64853;BME280;56050;55.558;-4.644;2023-04-20T11:45:19;102846.91;;;16.23;38.78
64853;BME280;56050;55.558;-4.644;2023-04-20T11:47:45;102855.56;;;16.32;38.82
64853;BME280;56050;55.558;-4.644;2023-04-20T11:50:11;102842.03;;;16.39;38.84
64853;BME280;56050;55.558;-4.644;2023-04-20T11:52:37;102842.09;;;16.46;38.75
64853;BME280;56050;55.558;-4.644;2023-04-20T11:55:03;102843.69;;;16.51;38.73
64853;BME280;56050;55.558;-4.644;2023-04-20T11:57:29;102836.38;;;16.55;38.66
64853;BME280;56050;55.558;-4.644;2023-04-20T11:59:55;102834.44;;;16.55;38.38
64853;BME280;56050;55.558;-4.644;2023-04-20T12:02:20;102826.66;;;16.54;38.45
64853;BME280;56050;55.558;-4.644;2023-04-20T12:04:46;102835.63;;;16.58;38.51
64853;BME280;56050;55.558;-4.644;2023-04-20T12:07:12;102817.75;;;16.60;38.31
64853;BME280;56050;55.558;-4.644;2023-04-20T12:09:37;102819.72;;;16.63;38.38
64853;BME280;56050;55.558;-4.644;2023-04-20T12:12:04;102829.44;;;16.61;37.89
64853;BME280;56050;55.558;-4.644;2023-04-20T12:14:30;102816.59;;;16.61;37.80
64853;BME280;56050;55.558;-4.644;2023-04-20T12:16:58;102818.94;;;16.63;37.53
64853;BME280;56050;55.558;-4.644;2023-04-20T12:19:23;102814.31;;;16.67;37.57
64853;BME280;56050;55.558;-4.644;2023-04-20T12:21:49;102815.50;;;16.69;37.19
64853;BME280;56050;55.558;-4.644;2023-04-20T12:24:14;102817.09;;;16.74;36.84
64853;BME280;56050;55.558;-4.644;2023-04-20T12:26:39;102800.41;;;16.75;37.10
64853;BME280;56050;55.558;-4.644;2023-04-20T12:29:05;102802.75;;;16.80;37.04
64853;BME280;56050;55.558;-4.644;2023-04-20T12:31:31;102814.47;;;16.88;37.03
64853;BME280;56050;55.558;-4.644;2023-04-20T12:33:57;102815.28;;;16.92;36.55
64853;BME280;56050;55.558;-4.644;2023-04-20T12:36:22;102805.56;;;16.91;36.00
64853;BME280;56050;55.558;-4.644;2023-04-20T12:38:49;102801.28;;;16.93;36.39
64853;BME280;56050;55.558;-4.644;2023-04-20T12:41:16;102809.53;;;17.00;36.21
64853;BME280;56050;55.558;-4.644;2023-04-20T12:43:41;102799.81;;;17.03;36.02
64853;BME280;56050;55.558;-4.644;2023-04-20T12:46:07;102798.28;;;17.06;36.47